createdAt,value
2018-07-17T00:01:14.889Z,100551.86
2018-07-17T00:03:43.485Z,100555.83
2018-07-17T00:06:11.830Z,100548.55
2018-07-17T00:08:40.184Z,100553.50
2018-07-17T00:11:09.513Z,100547.89
2018-07-17T00:13:38.920Z,100549.52
2018-07-17T00:16:09.322Z,100549.17
2018-07-17T00:18:39.570Z,100553.80
2018-07-17T00:21:10.111Z,100547.98
2018-07-17T00:23:39.603Z,100556.26
2018-07-17T00:26:10.190Z,100551.09
2018-07-17T00:28:39.618Z,100551.41
2018-07-17T00:31:09.493Z,100540.23
2018-07-17T00:33:39.420Z,100550.19
2018-07-17T00:36:09.716Z,100553.27
2018-07-17T00:38:38.982Z,100556.38
2018-07-17T00:41:08.045Z,100558.67
2018-07-17T00:43:38.092Z,100555.00
2018-07-17T00:46:08.041Z,100555.66
2018-07-17T00:48:37.940Z,100552.37
2018-07-17T00:51:06.990Z,100554.03
2018-07-17T00:53:37.052Z,100550.06
2018-07-17T00:56:06.218Z,100555.97
2018-07-17T00:58:35.444Z,100551.99
2018-07-17T01:01:04.080Z,100552.12
2018-07-17T01:03:38.700Z,100551.16
2018-07-17T01:06:13.924Z,100555.61
2018-07-17T01:08:47.772Z,100559.91
2018-07-17T01:11:21.422Z,100566.88
2018-07-17T01:13:55.507Z,100559.92
2018-07-17T01:16:23.850Z,100564.47
2018-07-17T01:18:52.217Z,100558.98
2018-07-17T01:21:20.609Z,100557.83
2018-07-17T01:23:49.857Z,100554.47
2018-07-17T01:26:19.181Z,100548.20
2018-07-17T01:28:48.181Z,100550.50
2018-07-17T01:31:16.533Z,100551.98
2018-07-17T01:33:44.881Z,100553.09
2018-07-17T01:36:13.917Z,100551.98
2018-07-17T01:38:43.329Z,100557.11
2018-07-17T01:41:11.674Z,100552.18
2018-07-17T01:43:40.033Z,100543.30
2018-07-17T01:46:09.281Z,100551.89
2018-07-17T01:48:38.019Z,100555.87
2018-07-17T01:51:07.007Z,100550.27
2018-07-17T01:53:35.338Z,100550.09
2018-07-17T01:56:03.722Z,100549.14
2018-07-17T01:58:32.068Z,100545.66
2018-07-17T02:01:00.528Z,100541.39
2018-07-17T02:03:28.865Z,100542.02
2018-07-17T02:05:57.234Z,100536.12
2018-07-17T02:08:25.573Z,100534.45
2018-07-17T02:10:53.971Z,100536.61
2018-07-17T02:13:22.321Z,100538.78
2018-07-17T02:15:50.688Z,100536.00
2018-07-17T02:18:20.046Z,100537.33
2018-07-17T02:20:49.309Z,100538.30
2018-07-17T02:23:18.650Z,100538.47
2018-07-17T02:25:48.263Z,100535.66
2018-07-17T02:28:16.653Z,100535.84
2018-07-17T02:30:44.993Z,100533.06
2018-07-17T02:33:13.365Z,100537.88
2018-07-17T02:35:41.720Z,100529.09
2018-07-17T02:38:10.060Z,100533.24
2018-07-17T02:40:39.155Z,100531.27
2018-07-17T02:43:08.136Z,100519.38
2018-07-17T02:45:37.185Z,100523.21
2018-07-17T02:48:05.572Z,100515.80
2018-07-17T02:50:33.940Z,100518.75
2018-07-17T02:53:02.296Z,100521.61
2018-07-17T02:55:30.657Z,100526.41
2018-07-17T02:57:58.993Z,100530.90
2018-07-17T03:00:27.369Z,100532.88
2018-07-17T03:02:55.869Z,100527.10
2018-07-17T03:05:24.233Z,100535.38
2018-07-17T03:07:52.581Z,100538.69
2018-07-17T03:10:20.929Z,100542.31
2018-07-17T03:12:49.281Z,100548.61
2018-07-17T03:15:18.125Z,100550.42
2018-07-17T03:17:46.475Z,100558.20
2018-07-17T03:20:14.826Z,100566.80
2018-07-17T03:22:43.183Z,100569.72
2018-07-17T03:25:11.518Z,100576.83
2018-07-17T03:27:39.866Z,100579.85
2018-07-17T03:30:08.932Z,100575.28
2018-07-17T03:32:38.882Z,100571.80
2018-07-17T03:35:08.017Z,100572.30
2018-07-17T03:37:37.181Z,100574.10
2018-07-17T03:40:05.749Z,100563.17
2018-07-17T03:42:34.122Z,100559.03
2018-07-17T03:45:02.537Z,100568.47
2018-07-17T03:47:30.879Z,100566.83
2018-07-17T03:49:59.234Z,100570.30
2018-07-17T03:52:27.578Z,100570.13
2018-07-17T03:54:55.987Z,100572.13
2018-07-17T03:57:24.327Z,100571.95
2018-07-17T03:59:52.659Z,100573.09
2018-07-17T04:02:21.005Z,100564.50
2018-07-17T04:04:49.391Z,100567.80
2018-07-17T04:07:18.382Z,100567.98
2018-07-17T04:09:47.795Z,100567.83
2018-07-17T04:12:17.273Z,100560.55
2018-07-17T04:14:46.799Z,100561.86
2018-07-17T04:17:15.834Z,100561.72
2018-07-17T04:19:44.169Z,100563.53
2018-07-17T04:22:12.544Z,100555.25
2018-07-17T04:24:40.901Z,100561.70
2018-07-17T04:27:10.251Z,100563.52
2018-07-17T04:29:39.870Z,100559.88
2018-07-17T04:32:09.004Z,100563.84
2018-07-17T04:34:38.378Z,100565.17
2018-07-17T04:37:07.287Z,100568.98
2018-07-17T04:39:35.649Z,100564.16
2018-07-17T04:42:04.018Z,100564.34
2018-07-17T04:44:32.366Z,100565.81
2018-07-17T04:47:00.727Z,100561.66
2018-07-17T04:49:29.089Z,100568.13
2018-07-17T04:51:58.352Z,100567.81
2018-07-17T04:54:26.688Z,100570.45
2018-07-17T04:56:55.038Z,100567.45
2018-07-17T04:59:23.401Z,100563.14
2018-07-17T05:01:51.795Z,100566.05
2018-07-17T05:04:20.149Z,100565.17
2018-07-17T05:06:48.977Z,100566.63
2018-07-17T05:09:18.344Z,100565.52
2018-07-17T05:11:47.670Z,100572.56
2018-07-17T05:14:17.194Z,100573.29
2018-07-17T05:16:45.540Z,100573.63
2018-07-17T05:19:13.888Z,100575.95
2018-07-17T05:21:42.238Z,100585.13
2018-07-17T05:24:10.582Z,100582.16
2018-07-17T05:26:40.294Z,100586.13
2018-07-17T05:29:09.827Z,100579.90
2018-07-17T05:31:38.224Z,100576.62
2018-07-17T05:34:06.657Z,100580.22
2018-07-17T05:36:35.022Z,100580.75
2018-07-17T05:39:03.889Z,100571.17
2018-07-17T05:41:32.277Z,100568.95
2018-07-17T05:44:00.610Z,100569.91
2018-07-17T05:46:29.055Z,100574.91
2018-07-17T05:48:57.438Z,100574.85
2018-07-17T05:51:25.822Z,100566.95
2018-07-17T05:53:54.186Z,100578.20
2018-07-17T05:56:22.553Z,100576.58
2018-07-17T05:58:51.173Z,100572.89
2018-07-17T06:01:19.999Z,100579.52
2018-07-17T06:03:49.359Z,100582.78
2018-07-17T06:06:18.495Z,100588.34
2018-07-17T06:08:47.905Z,100585.05
2018-07-17T06:11:16.918Z,100587.06
2018-07-17T06:13:46.024Z,100583.86
2018-07-17T06:16:14.670Z,100578.94
2018-07-17T06:18:43.042Z,100577.06
2018-07-17T06:21:11.398Z,100580.25
2018-07-17T06:23:40.341Z,100580.59
2018-07-17T06:26:09.786Z,100579.06
2018-07-17T06:28:39.365Z,100586.63
2018-07-17T06:31:07.725Z,100590.02
2018-07-17T06:33:36.065Z,100587.50
2018-07-17T06:36:04.398Z,100596.73
2018-07-17T06:38:32.807Z,100596.46
2018-07-17T06:41:01.201Z,100594.49
2018-07-17T06:43:29.572Z,100598.98
2018-07-17T06:45:57.974Z,100601.51
2018-07-17T06:48:26.333Z,100600.24
2018-07-17T06:50:54.736Z,100598.69
2018-07-17T06:53:23.149Z,100591.91
2018-07-17T06:55:51.519Z,100584.63
2018-07-17T06:58:20.106Z,100578.52
2018-07-17T07:00:49.751Z,100581.93
2018-07-17T07:03:18.821Z,100582.09
2018-07-17T07:05:48.147Z,100582.44
2018-07-17T07:08:16.566Z,100586.63
2018-07-17T07:10:44.986Z,100579.30
2018-07-17T07:13:13.332Z,100574.27
2018-07-17T07:15:41.678Z,100573.86
2018-07-17T07:18:10.053Z,100578.92
2018-07-17T07:20:39.074Z,100574.56
2018-07-17T07:23:07.771Z,100580.70
2018-07-17T07:25:36.125Z,100579.34
2018-07-17T07:28:04.543Z,100575.81
2018-07-17T07:30:32.966Z,100579.91
2018-07-17T07:33:01.317Z,100573.50
2018-07-17T07:35:29.672Z,100571.87
2018-07-17T07:37:58.023Z,100567.40
2018-07-17T07:40:26.378Z,100569.17
2018-07-17T07:42:54.922Z,100561.58
2018-07-17T07:45:23.137Z,100557.61
2018-07-17T07:47:51.490Z,100564.77
2018-07-17T07:50:19.850Z,100557.81
2018-07-17T07:52:49.638Z,100555.03
2018-07-17T07:55:19.114Z,100548.69
2018-07-17T07:57:49.097Z,100557.83
2018-07-17T08:00:18.187Z,100555.16
2018-07-17T08:02:47.581Z,100553.27
2018-07-17T08:05:17.046Z,100554.38
2018-07-17T08:07:45.385Z,100562.09
2018-07-17T08:10:13.805Z,100568.27
2018-07-17T08:12:42.180Z,100568.52
2018-07-17T08:15:10.561Z,100560.94
2018-07-17T08:17:39.029Z,100564.34
2018-07-17T08:20:07.941Z,100556.27
2018-07-17T08:22:36.318Z,100562.36
2018-07-17T08:25:04.777Z,100556.35
2018-07-17T08:27:33.234Z,100555.64
2018-07-17T08:30:01.619Z,100548.45
2018-07-17T08:32:29.980Z,100557.75
2018-07-17T08:34:58.661Z,100555.87
2018-07-17T08:37:27.047Z,100564.13
2018-07-17T08:39:55.422Z,100561.05
2018-07-17T08:42:23.777Z,100562.22
2018-07-17T08:44:52.174Z,100562.52
2018-07-17T08:47:20.519Z,100564.45
2018-07-17T08:49:48.934Z,100562.02
2018-07-17T08:52:18.281Z,100563.01
2018-07-17T08:54:47.902Z,100559.27
2018-07-17T08:57:17.753Z,100555.44
2018-07-17T08:59:47.737Z,100554.61
2018-07-17T09:02:16.942Z,100556.66
2018-07-17T09:04:45.997Z,100552.13
2018-07-17T09:07:14.355Z,100564.09
2018-07-17T09:09:42.714Z,100556.47
2018-07-17T09:12:11.102Z,100564.16
2018-07-17T09:14:43.261Z,100560.16
2018-07-17T09:17:11.750Z,100557.97
2018-07-17T09:19:40.115Z,100555.36
2018-07-17T09:22:09.484Z,100558.81
2018-07-17T09:24:38.380Z,100557.11
2018-07-17T09:27:06.815Z,100556.42
2018-07-17T09:29:35.169Z,100552.96
2018-07-17T09:32:03.526Z,100556.98
2018-07-17T09:34:31.891Z,100548.89
2018-07-17T09:37:00.241Z,100544.14
2018-07-17T09:39:28.597Z,100547.78
2018-07-17T09:41:56.945Z,100542.96
2018-07-17T09:44:25.344Z,100541.81
2018-07-17T09:46:53.686Z,100544.83
2018-07-17T09:49:22.122Z,100545.05
2018-07-17T09:51:50.672Z,100545.21
2018-07-17T09:54:19.113Z,100538.81
2018-07-17T09:56:48.542Z,100533.46
2018-07-17T09:59:17.518Z,100532.27
2018-07-17T10:01:51.094Z,100534.08
2018-07-17T10:04:19.447Z,100542.21
2018-07-17T10:06:48.755Z,100543.19
2018-07-17T10:09:18.034Z,100547.50
2018-07-17T10:11:47.138Z,100538.11
2018-07-17T10:14:15.473Z,100547.06
2018-07-17T10:16:43.816Z,100544.52
2018-07-17T10:19:12.156Z,100546.98
2018-07-17T10:21:40.502Z,100537.36
2018-07-17T10:24:10.181Z,100542.98
2018-07-17T10:26:39.302Z,100543.42
2018-07-17T10:29:08.522Z,100535.77
2018-07-17T10:31:37.332Z,100532.08
2018-07-17T10:34:05.765Z,100532.90
2018-07-17T10:36:34.134Z,100534.66
2018-07-17T10:39:02.474Z,100545.20
2018-07-17T10:41:30.838Z,100537.53
2018-07-17T10:43:59.183Z,100531.56
2018-07-17T10:46:27.541Z,100530.06
2018-07-17T10:48:55.881Z,100534.48
2018-07-17T10:51:24.248Z,100522.53
2018-07-17T10:53:52.590Z,100524.54
2018-07-17T10:56:20.949Z,100524.32
2018-07-17T10:58:49.298Z,100525.03
2018-07-17T11:01:18.511Z,100518.81
2018-07-17T11:03:47.947Z,100519.44
2018-07-17T11:06:18.465Z,100513.90
2018-07-17T11:08:47.718Z,100519.81
2018-07-17T11:11:17.030Z,100520.93
2018-07-17T11:13:46.174Z,100524.13
2018-07-17T11:16:14.954Z,100521.52
2018-07-17T11:18:43.288Z,100511.13
2018-07-17T11:21:11.626Z,100511.63
2018-07-17T11:23:40.034Z,100510.25
2018-07-17T11:26:08.447Z,100514.20
2018-07-17T11:28:37.427Z,100508.11
2018-07-17T11:31:05.761Z,100507.55
2018-07-17T11:33:34.105Z,100510.62
2018-07-17T11:36:02.433Z,100509.15
2018-07-17T11:38:30.794Z,100513.55
2018-07-17T11:40:59.137Z,100505.25
2018-07-17T11:43:27.598Z,100499.95
2018-07-17T11:45:55.937Z,100497.61
2018-07-17T11:48:24.276Z,100509.67
2018-07-17T11:50:52.658Z,100498.74
2018-07-17T11:53:21.065Z,100496.38
2018-07-17T11:55:49.437Z,100495.50
2018-07-17T11:58:18.743Z,100496.31
2018-07-17T12:00:48.099Z,100492.62
2018-07-17T12:03:16.513Z,100487.98
2018-07-17T12:05:44.902Z,100491.15
2018-07-17T12:08:13.295Z,100485.53
2018-07-17T12:10:41.639Z,100488.74
2018-07-17T12:13:10.075Z,100486.52
2018-07-17T12:15:38.476Z,100484.61
2018-07-17T12:18:06.918Z,100492.91
2018-07-17T12:20:35.584Z,100478.84
2018-07-17T12:23:03.749Z,100479.61
2018-07-17T12:25:32.110Z,100482.23
2018-07-17T12:28:00.489Z,100475.05
2018-07-17T12:30:28.851Z,100473.62
2018-07-17T12:32:57.336Z,100468.88
2018-07-17T12:35:25.721Z,100474.06
2018-07-17T12:37:54.093Z,100478.65
2018-07-17T12:40:22.426Z,100478.91
2018-07-17T12:42:50.761Z,100466.27
2018-07-17T12:45:19.106Z,100469.80
2018-07-17T12:47:48.148Z,100464.11
2018-07-17T12:50:16.502Z,100465.76
2018-07-17T12:52:44.857Z,100469.80
2018-07-17T12:55:13.225Z,100468.94
2018-07-17T12:57:41.577Z,100463.67
2018-07-17T13:00:10.537Z,100457.70
2018-07-17T13:02:40.488Z,100447.84
2018-07-17T13:05:09.737Z,100443.56
2018-07-17T13:07:38.589Z,100444.88
2018-07-17T13:10:07.560Z,100447.94
2018-07-17T13:12:36.121Z,100446.11
2018-07-17T13:15:05.406Z,100441.03
2018-07-17T13:17:34.045Z,100450.19
2018-07-17T13:20:02.337Z,100446.66
2018-07-17T13:22:30.681Z,100443.52
2018-07-17T13:24:59.054Z,100444.10
2018-07-17T13:27:27.389Z,100438.55
2018-07-17T13:29:55.799Z,100443.02
2018-07-17T13:32:24.155Z,100445.94
2018-07-17T13:34:52.508Z,100436.58
2018-07-17T13:37:20.849Z,100436.83
2018-07-17T13:39:49.177Z,100435.09
2018-07-17T13:42:18.239Z,100436.87
2018-07-17T13:44:46.656Z,100436.22
2018-07-17T13:47:14.993Z,100429.92
2018-07-17T13:49:43.328Z,100426.75
2018-07-17T13:52:11.693Z,100426.27
2018-07-17T13:54:41.423Z,100427.70
2018-07-17T13:57:09.777Z,100424.44
2018-07-17T13:59:38.603Z,100420.86
2018-07-17T14:02:07.542Z,100427.58
2018-07-17T14:04:36.289Z,100420.61
2018-07-17T14:07:04.629Z,100420.55
2018-07-17T14:09:32.978Z,100416.28
2018-07-17T14:12:01.326Z,100411.05
2018-07-17T14:14:29.677Z,100408.05
2018-07-17T14:16:58.046Z,100406.98
2018-07-17T14:19:26.409Z,100407.45
2018-07-17T14:21:54.754Z,100401.42
2018-07-17T14:24:23.112Z,100400.16
2018-07-17T14:26:51.458Z,100402.27
2018-07-17T14:29:19.815Z,100402.77
2018-07-17T14:31:48.912Z,100399.80
2018-07-17T14:34:17.810Z,100404.30
2018-07-17T14:36:48.674Z,100401.59
2018-07-17T14:39:18.066Z,100409.52
2018-07-17T14:41:46.486Z,100415.35
2018-07-17T14:44:14.818Z,100406.37
2018-07-17T14:46:43.213Z,100418.68
2018-07-17T14:49:11.561Z,100419.34
2018-07-17T14:51:41.301Z,100421.14
2018-07-17T14:54:10.731Z,100423.24
2018-07-17T14:56:40.125Z,100422.86
2018-07-17T14:59:09.580Z,100429.95
2018-07-17T15:01:38.539Z,100428.27
2018-07-17T15:04:07.900Z,100422.47
2018-07-17T15:06:36.250Z,100426.09
2018-07-17T15:09:06.050Z,100425.72
2018-07-17T15:11:34.387Z,100423.99
2018-07-17T15:14:02.741Z,100425.69
2018-07-17T15:16:31.077Z,100430.16
2018-07-17T15:18:59.458Z,100434.21
2018-07-17T15:21:27.793Z,100417.33
2018-07-17T15:23:56.130Z,100422.10
2018-07-17T15:26:24.466Z,100419.73
2018-07-17T15:28:52.809Z,100418.90
2018-07-17T15:31:21.149Z,100419.06
2018-07-17T15:33:49.500Z,100412.39
2018-07-17T15:36:19.226Z,100420.95
2018-07-17T15:38:48.106Z,100414.05
2018-07-17T15:41:16.546Z,100416.05
2018-07-17T15:43:44.889Z,100417.70
2018-07-17T15:46:13.276Z,100425.79
2018-07-17T15:48:41.754Z,100417.41
2018-07-17T15:51:11.016Z,100427.13
2018-07-17T15:53:40.551Z,100428.86
2018-07-17T15:56:09.829Z,100432.33
2018-07-17T15:58:38.559Z,100433.20
2018-07-17T16:01:07.634Z,100440.36
2018-07-17T16:03:36.023Z,100432.56
2018-07-17T16:06:04.417Z,100434.09
2018-07-17T16:08:32.793Z,100448.86
2018-07-17T16:11:01.134Z,100453.06
2018-07-17T16:13:29.591Z,100446.80
2018-07-17T16:15:57.891Z,100452.67
2018-07-17T16:18:26.218Z,100457.37
2018-07-17T16:20:54.554Z,100463.16
2018-07-17T16:23:22.893Z,100463.59
2018-07-17T16:25:51.251Z,100465.01
2018-07-17T16:28:19.592Z,100468.01
2018-07-17T16:30:48.894Z,100478.88
2018-07-17T16:33:18.585Z,100479.76
2018-07-17T16:35:48.349Z,100479.27
2018-07-17T16:38:17.730Z,100488.47
2018-07-17T16:40:47.170Z,100491.20
2018-07-17T16:43:15.509Z,100486.75
2018-07-17T16:45:43.846Z,100490.23
2018-07-17T16:48:12.258Z,100492.32
2018-07-17T16:50:40.633Z,100485.70
2018-07-17T16:53:09.945Z,100487.11
2018-07-17T16:55:38.688Z,100483.44
2018-07-17T16:58:08.760Z,100482.45
2018-07-17T17:00:37.817Z,100491.94
2018-07-17T17:03:06.215Z,100483.35
2018-07-17T17:05:34.737Z,100481.25
2018-07-17T17:08:03.242Z,100478.59
2018-07-17T17:10:32.609Z,100477.87
2018-07-17T17:13:00.979Z,100471.84
2018-07-17T17:15:29.372Z,100479.53
2018-07-17T17:17:57.730Z,100481.45
2018-07-17T17:20:26.110Z,100475.45
2018-07-17T17:22:54.462Z,100480.76
2018-07-17T17:25:22.843Z,100486.21
2018-07-17T17:27:51.192Z,100484.28
2018-07-17T17:30:19.580Z,100486.36
2018-07-17T17:32:49.092Z,100481.25
2018-07-17T17:35:18.133Z,100479.78
2018-07-17T17:37:46.484Z,100477.33
2018-07-17T17:40:14.831Z,100481.39
2018-07-17T17:42:43.182Z,100493.72
2018-07-17T17:45:11.533Z,100489.91
2018-07-17T17:47:40.027Z,100492.30
2018-07-17T17:50:08.844Z,100495.13
2018-07-17T17:52:37.641Z,100489.42
2018-07-17T17:55:05.998Z,100492.03
2018-07-17T17:57:34.376Z,100489.95
2018-07-17T18:00:02.797Z,100494.23
2018-07-17T18:02:31.150Z,100489.61
2018-07-17T18:04:59.502Z,100486.30
2018-07-17T18:07:27.921Z,100484.26
2018-07-17T18:09:56.278Z,100489.53
2018-07-17T18:12:24.645Z,100487.17
2018-07-17T18:14:53.012Z,100489.77
2018-07-17T18:17:21.407Z,100485.95
2018-07-17T18:19:50.121Z,100490.49
2018-07-17T18:22:18.512Z,100494.08
2018-07-17T18:24:47.510Z,100491.31
2018-07-17T18:27:16.486Z,100492.83
2018-07-17T18:29:44.853Z,100493.56
2018-07-17T18:32:13.273Z,100500.02
2018-07-17T18:34:41.674Z,100503.19
2018-07-17T18:37:11.286Z,100505.03
2018-07-17T18:39:40.915Z,100504.20
2018-07-17T18:42:11.023Z,100506.52
2018-07-17T18:44:40.725Z,100511.02
2018-07-17T18:47:10.720Z,100512.83
2018-07-17T18:49:40.399Z,100512.62
2018-07-17T18:52:10.472Z,100516.91
2018-07-17T18:54:40.113Z,100507.73
2018-07-17T18:57:09.012Z,100514.36
2018-07-17T18:59:38.796Z,100510.72
2018-07-17T19:02:08.913Z,100503.16
2018-07-17T19:04:38.815Z,100509.68
2018-07-17T19:07:08.781Z,100511.81
2018-07-17T19:09:38.587Z,100513.27
2018-07-17T19:12:08.835Z,100512.62
2018-07-17T19:15:40.846Z,100509.47
2018-07-17T19:18:09.662Z,100515.16
2018-07-17T19:20:39.236Z,100518.70
2018-07-17T19:23:09.229Z,100519.16
2018-07-17T19:25:39.442Z,100517.04
2018-07-17T19:28:09.313Z,100519.95
2018-07-17T19:30:38.916Z,100512.50
2018-07-17T19:33:08.882Z,100515.11
2018-07-17T19:35:38.363Z,100512.82
2018-07-17T19:38:09.814Z,100518.47
2018-07-17T19:40:39.780Z,100513.73
2018-07-17T19:43:09.500Z,100531.30
2018-07-17T19:45:40.759Z,100527.34
2018-07-17T19:48:10.195Z,100528.05
2018-07-17T19:50:39.751Z,100528.86
2018-07-17T19:53:09.265Z,100525.89
2018-07-17T19:55:39.159Z,100530.39
2018-07-17T19:58:08.780Z,100527.02
2018-07-17T20:00:38.906Z,100527.23
2018-07-17T20:03:08.871Z,100531.22
2018-07-17T20:05:38.806Z,100524.23
2018-07-17T20:08:08.728Z,100534.33
2018-07-17T20:10:38.306Z,100533.73
2018-07-17T20:13:07.681Z,100535.97
2018-07-17T20:15:36.403Z,100539.00
2018-07-17T20:18:05.099Z,100535.53
2018-07-17T20:20:34.144Z,100533.94
2018-07-17T20:23:02.847Z,100533.73
2018-07-17T20:25:31.575Z,100535.41
2018-07-17T20:28:00.297Z,100527.08
2018-07-17T20:30:28.973Z,100531.27
2018-07-17T20:32:57.731Z,100532.97
2018-07-17T20:35:26.407Z,100531.34
2018-07-17T20:37:55.269Z,100538.36
2018-07-17T20:40:23.874Z,100529.06
2018-07-17T20:42:52.414Z,100541.66
2018-07-17T20:45:20.958Z,100541.53
2018-07-17T20:47:49.749Z,100537.40
2018-07-17T20:50:19.220Z,100546.64
2018-07-17T20:52:48.580Z,100540.19
2018-07-17T20:55:18.125Z,100542.38
2018-07-17T20:57:47.531Z,100542.64
2018-07-17T21:00:16.678Z,100537.31
2018-07-17T21:02:45.676Z,100537.81
2018-07-17T21:05:14.232Z,100541.69
2018-07-17T21:07:42.697Z,100536.89
2018-07-17T21:10:11.057Z,100535.66
2018-07-17T21:12:40.453Z,100535.98
2018-07-17T21:15:10.420Z,100544.77
2018-07-17T21:17:39.697Z,100540.48
2018-07-17T21:20:09.382Z,100541.31
2018-07-17T21:22:38.829Z,100531.53
2018-07-17T21:25:07.768Z,100539.38
2018-07-17T21:27:36.109Z,100531.87
2018-07-17T21:30:04.697Z,100535.16
2018-07-17T21:32:33.054Z,100534.69
2018-07-17T21:35:01.396Z,100534.45
2018-07-17T21:37:29.765Z,100539.13
2018-07-17T21:39:58.500Z,100543.42
2018-07-17T21:42:26.838Z,100542.17
2018-07-17T21:44:55.330Z,100538.37
2018-07-17T21:47:23.677Z,100546.92
2018-07-17T21:49:52.013Z,100545.48
2018-07-17T21:52:20.341Z,100543.52
2018-07-17T21:54:48.882Z,100548.28
2018-07-17T21:57:18.398Z,100552.22
2018-07-17T21:59:47.475Z,100551.91
2018-07-17T22:02:16.973Z,100554.82
2018-07-17T22:04:45.322Z,100555.21
2018-07-17T22:07:13.665Z,100553.19
2018-07-17T22:09:42.002Z,100556.44
2018-07-17T22:12:11.004Z,100554.70
2018-07-17T22:14:40.438Z,100558.29
2018-07-17T22:17:10.778Z,100555.43
2018-07-17T22:19:40.086Z,100556.82
2018-07-17T22:22:08.805Z,100553.19
2018-07-17T22:24:37.755Z,100550.25
2018-07-17T22:27:06.122Z,100555.27
2018-07-17T22:29:34.478Z,100558.29
2018-07-17T22:32:02.830Z,100555.69
2018-07-17T22:34:31.202Z,100555.34
2018-07-17T22:36:59.536Z,100554.66
2018-07-17T22:39:28.522Z,100552.33
2018-07-17T22:41:56.856Z,100550.66
2018-07-17T22:44:25.189Z,100555.93
2018-07-17T22:46:53.535Z,100555.48
2018-07-17T22:49:22.929Z,100554.02
2018-07-17T22:51:53.004Z,100554.02
2018-07-17T22:54:21.352Z,100557.03
2018-07-17T22:56:49.738Z,100552.19
2018-07-17T22:59:19.741Z,100555.13
2018-07-17T23:01:49.213Z,100554.94
2018-07-17T23:04:18.597Z,100554.98
2018-07-17T23:06:48.317Z,100559.67
2018-07-17T23:09:17.430Z,100559.67
2018-07-17T23:11:46.861Z,100557.31
2018-07-17T23:14:16.312Z,100552.25
2018-07-17T23:16:44.658Z,100557.66
2018-07-17T23:19:14.011Z,100560.39
2018-07-17T23:21:42.354Z,100559.03
2018-07-17T23:24:10.722Z,100561.41
2018-07-17T23:26:39.848Z,100556.31
2018-07-17T23:29:08.962Z,100553.79
2018-07-17T23:31:37.349Z,100551.48
2018-07-17T23:34:05.709Z,100553.70
2018-07-17T23:36:34.054Z,100551.23
2018-07-17T23:39:02.466Z,100545.23
2018-07-17T23:41:30.927Z,100552.16
2018-07-17T23:43:59.329Z,100549.80
2018-07-17T23:46:27.707Z,100550.94
2018-07-17T23:48:56.041Z,100541.05
2018-07-17T23:51:24.425Z,100544.59
2018-07-17T23:53:52.762Z,100538.09
2018-07-17T23:56:21.125Z,100533.95
2018-07-17T23:58:49.561Z,100537.94
